Portada
METAR-TAF:

METAR-TAF

Aeroports :

Aeroport Internacional Reina Beatrix

Aruba, Aruba

latitud: 12-30N, longitud: 070-01W, altitud: 18 m

Observació

L'informe es va fer fa 1 hora i 5 minuts, a les 09:00 UTC
Vent 10 kt del Est
Temperatura 27°C
Humitat 84%
Pressió 1011 hPa
Visibilitat 10 km o més
Núvols disperses a una alçada de 1700 ft

METAR: TNCA 090900Z 09010KT 9999 SCT017 27/24 Q1011 NOSIG

Hora: 06:05 (10:05 UTC)

Pronòstic

L'informe es va fer fa 4 hores i 50 minuts, a les 05:15 UTC
Pronòstic vàlid del 09 a les 06 UTC al 10 a les 06 UTC
Vent 13 kt del Est
Visibilitat 10 km o més
Núvols disperses a una alçada de 1800 ft
Probabilitat 30% :
Temporalment
l' 09 a les 06 UTC al 09 a les 12 UTC
Visibilitat: 7000 m
Cel ennuvolat a una alçada de 1400 ft
xàfecs de pluja

TAF: TNCA 090515Z 0906/1006 09013KT 9999 SCT018 PROB30 TEMPO 0906/0912 7000 SHRA BKN014

Observacions i pronòstics meteorològics de més de 4000 aeroports (METAR i TAF).

Les estacions disponibles són els punts grocs i vermells al mapa.

Posi el ratolí al punt desitjat per veure el nom de l'estació.

Feu clic per veure les observacions i els pronòstics meteorològics.

Per canviar el mapa: feu clic els botons verds amb una creu de color negre per apropar; al botó verd amb un guió per allunyar la imatge; o en les fletxes verdes per a mapes adjacents.


METAR-TAF: